Time;durP1;ratioP1;P1;durP2;ratioP2;P2;SDS_P1;SDS_P2;PMS_P1;PMS_P2;Temp;Humidity;BMP_temperature;BMP_pressure;BME280_temperature;BME280_humidity;BME280_pressure;Samples;Min_cycle;Max_cycle;Signal;HPM_P1;HPM_P2
2021/12/22 00:01:08;;;;;;;45.00;16.47;;;;;;;-3.50;91.84;102012.44;5024958;28;20221;-76
2021/12/22 00:03:36;;;;;;;34.03;15.30;;;;;;;-3.51;91.73;102011.56;5024721;28;20206;-75
2021/12/22 00:06:03;;;;;;;42.70;15.60;;;;;;;-3.53;91.65;102015.00;5027323;28;20234;-76
2021/12/22 00:08:30;;;;;;;85.33;17.67;;;;;;;-3.57;91.64;102006.25;5024778;28;20553;-75
2021/12/22 00:10:57;;;;;;;47.93;16.53;;;;;;;-3.60;91.46;102008.84;5026879;28;20210;-76
2021/12/22 00:13:23;;;;;;;58.47;16.40;;;;;;;-3.62;91.60;102014.88;5027409;28;20206;-75
2021/12/22 00:15:50;;;;;;;50.83;18.40;;;;;;;-3.62;92.08;102009.66;5026240;28;21097;-77
2021/12/22 00:18:16;;;;;;;29.13;15.07;;;;;;;-3.61;91.67;102009.69;5025628;28;20217;-76
2021/12/22 00:20:45;;;;;;;30.80;14.97;;;;;;;-3.60;91.54;102003.63;5027161;28;20229;-76
2021/12/22 00:23:11;;;;;;;34.33;15.17;;;;;;;-3.61;92.03;102009.69;5025871;28;20577;-75
2021/12/22 00:25:38;;;;;;;33.40;14.93;;;;;;;-3.63;91.81;102003.59;5030088;28;20670;-74
2021/12/22 00:28:05;;;;;;;34.50;15.57;;;;;;;-3.64;91.51;102007.03;5032844;28;20579;-75
2021/12/22 00:30:32;;;;;;;44.60;18.63;;;;;;;-3.64;91.63;102001.81;5028242;28;20229;-74
2021/12/22 00:33:03;;;;;;;36.30;16.67;;;;;;;-3.64;91.82;102001.81;5028197;28;20248;-74
2021/12/22 00:35:38;;;;;;;37.43;16.87;;;;;;;-3.63;91.54;102006.19;5029479;28;20594;-74
2021/12/22 00:38:06;;;;;;;32.20;15.57;;;;;;;-3.62;91.94;102001.84;5030997;28;20689;-74
2021/12/22 00:40:33;;;;;;;33.57;14.83;;;;;;;-3.62;91.62;102007.94;5026996;28;20245;-74
2021/12/22 00:43:00;;;;;;;39.50;12.77;;;;;;;-3.62;92.07;102000.13;5025300;28;20201;-74
2021/12/22 00:45:28;;;;;;;33.67;14.17;;;;;;;-3.65;91.73;102000.06;5028321;28;20666;-74
2021/12/22 00:47:55;;;;;;;33.77;14.67;;;;;;;-3.68;91.55;101993.94;5027700;28;20205;-74
2021/12/22 00:50:22;;;;;;;31.23;14.40;;;;;;;-3.68;91.66;101994.81;5031161;28;20202;-75
2021/12/22 00:52:49;;;;;;;29.23;12.70;;;;;;;-3.70;91.82;101987.81;5024585;28;20301;-74
2021/12/22 00:55:19;;;;;;;34.17;13.07;;;;;;;-3.72;91.54;101990.41;5028552;28;20233;-74
2021/12/22 00:57:46;;;;;;;23.17;11.23;;;;;;;-3.76;91.57;101993.78;5029668;28;20203;-74
2021/12/22 01:00:14;;;;;;;24.23;11.83;;;;;;;-3.78;91.53;101994.66;5025040;28;20238;-74
2021/12/22 01:02:41;;;;;;;26.90;11.00;;;;;;;-3.79;91.73;101998.97;5030063;28;20817;-74
2021/12/22 01:05:09;;;;;;;26.03;12.17;;;;;;;-3.82;91.64;101993.72;5028035;28;20227;-74
2021/12/22 01:07:35;;;;;;;21.90;10.43;;;;;;;-3.80;91.62;101998.94;5024171;28;20202;-74
2021/12/22 01:10:02;;;;;;;20.77;10.63;;;;;;;-3.83;91.73;101997.16;5027303;28;20204;-74
2021/12/22 01:12:30;;;;;;;23.13;10.23;;;;;;;-3.86;91.46;101994.50;5028277;28;20210;-74
2021/12/22 01:14:56;;;;;;;20.83;9.77;;;;;;;-3.88;91.78;101998.81;5030224;28;20232;-74
2021/12/22 01:17:23;;;;;;;19.87;10.33;;;;;;;-3.90;91.41;102003.09;5028941;28;20628;-74
2021/12/22 01:19:58;;;;;;;20.10;9.50;;;;;;;-3.91;91.77;101994.41;5030179;28;20229;-74
2021/12/22 01:22:32;;;;;;;21.43;10.07;;;;;;;-3.94;91.37;101990.91;5026885;28;20197;-74
2021/12/22 01:25:03;;;;;;;20.10;10.63;;;;;;;-3.97;91.65;101996.06;5026300;28;20609;-74
2021/12/22 01:27:36;;;;;;;20.43;11.10;;;;;;;-3.99;91.62;101987.34;5027830;28;20205;-74
2021/12/22 01:30:06;;;;;;;22.40;10.93;;;;;;;-3.99;91.55;101989.94;5028592;28;20206;-74
2021/12/22 01:32:32;;;;;;;20.90;10.30;;;;;;;-4.01;91.48;101991.66;5029942;28;20631;-73
2021/12/22 01:35:01;;;;;;;20.77;10.47;;;;;;;-4.01;91.59;102002.06;5028057;28;20724;-74
2021/12/22 01:37:28;;;;;;;20.50;10.47;;;;;;;-4.01;91.64;101997.72;5029631;28;20213;-74
2021/12/22 01:39:55;;;;;;;22.33;11.80;;;;;;;-3.98;91.83;102002.13;5026787;28;20230;-74
2021/12/22 01:42:21;;;;;;;26.10;12.20;;;;;;;-3.96;91.56;102000.41;5027217;28;20682;-74
2021/12/22 01:45:12;;;;;;;23.10;11.43;;;;;;;-3.94;91.49;101998.72;5027989;28;20240;-74
2021/12/22 01:50:34;;;;;;;18.27;10.60;;;;;;;-3.92;91.89;102005.69;5027725;28;20213;-74
2021/12/22 01:53:05;;;;;;;19.70;10.57;;;;;;;-3.90;91.78;102005.72;5027368;28;20197;-74
2021/12/22 01:55:37;;;;;;;19.93;9.83;;;;;;;-3.91;91.77;102003.94;5031598;28;20227;-74
2021/12/22 01:58:07;;;;;;;20.13;9.60;;;;;;;-3.92;91.66;102002.19;5027311;28;20663;-75
2021/12/22 02:00:35;;;;;;;17.83;9.50;;;;;;;-3.93;91.46;102000.44;5030459;28;20719;-74
2021/12/22 02:03:03;;;;;;;19.63;11.10;;;;;;;-3.94;91.26;102002.16;5031186;28;20211;-74
2021/12/22 02:05:29;;;;;;;20.00;11.83;;;;;;;-3.95;91.39;102005.66;5028169;28;20218;-74
2021/12/22 02:08:00;;;;;;;20.93;11.33;;;;;;;-3.97;91.15;101996.94;5022501;28;20233;-74
2021/12/22 02:13:15;;;;;;;20.27;11.70;;;;;;;-4.01;91.10;102008.13;5029538;28;20206;-74
2021/12/22 02:15:43;;;;;;;18.33;11.17;;;;;;;-4.04;90.79;102008.06;5028447;28;20226;-74
2021/12/22 02:18:16;;;;;;;18.83;11.43;;;;;;;-4.08;90.62;102005.38;5027552;28;20655;-74
2021/12/22 02:20:44;;;;;;;16.47;11.17;;;;;;;-4.13;90.50;102009.66;5031285;28;20252;-74
2021/12/22 02:23:11;;;;;;;16.87;9.33;;;;;;;-4.18;90.35;102017.38;5028019;28;20213;-74
2021/12/22 02:25:45;;;;;;;17.37;10.13;;;;;;;-4.22;90.43;102005.13;5019145;28;20604;-74
2021/12/22 02:28:18;;;;;;;19.23;9.87;;;;;;;-4.27;90.35;102007.66;5024007;28;20272;-74
2021/12/22 02:30:44;;;;;;;15.73;9.57;;;;;;;-4.30;89.95;102012.78;5028132;28;20287;-74
2021/12/22 02:33:23;;;;;;;17.40;10.23;;;;;;;-4.33;90.00;102007.56;5013767;28;20581;-74
2021/12/22 02:36:07;;;;;;;15.97;9.27;;;;;;;-4.36;90.01;102011.81;5030073;28;20349;-74
2021/12/22 02:38:35;;;;;;;16.63;9.97;;;;;;;-4.38;89.73;102014.38;5027557;28;20198;-74
2021/12/22 02:41:03;;;;;;;13.03;8.40;;;;;;;-4.39;89.60;102012.63;5030688;28;20228;-74
2021/12/22 02:43:32;;;;;;;18.10;9.50;;;;;;;-4.43;89.44;102008.22;5030921;28;20206;-74
2021/12/22 02:46:00;;;;;;;24.70;11.67;;;;;;;-4.50;89.12;102006.34;5055797;22;20233;-70
2021/12/22 02:48:29;;;;;;;20.30;12.00;;;;;;;-4.60;88.77;101999.19;5043396;28;20209;-70
2021/12/22 02:51:00;;;;;;;15.23;9.90;;;;;;;-4.65;89.11;101995.63;5043877;28;20595;-70
2021/12/22 02:53:31;;;;;;;17.30;10.60;;;;;;;-4.68;89.17;101998.19;5048101;28;20216;-70
2021/12/22 02:56:03;;;;;;;20.40;10.83;;;;;;;-4.69;89.14;101996.44;5035968;28;20229;-70
2021/12/22 02:58:36;;;;;;;15.07;9.33;;;;;;;-4.71;89.26;101998.13;5032586;28;20212;-70
2021/12/22 03:01:11;;;;;;;17.63;9.57;;;;;;;-4.76;88.86;102003.22;5033746;28;20713;-70
2021/12/22 03:03:55;;;;;;;16.93;10.37;;;;;;;-4.79;88.64;101999.66;5039163;28;20206;-70
2021/12/22 03:06:30;;;;;;;14.23;9.03;;;;;;;-4.82;88.53;101994.41;5032933;28;20221;-70
2021/12/22 03:08:57;;;;;;;13.40;8.63;;;;;;;-4.88;88.05;101999.50;5037808;28;20205;-70
2021/12/22 03:11:24;;;;;;;17.10;9.63;;;;;;;-4.93;88.26;102000.28;5046592;28;20201;-70
2021/12/22 03:13:50;;;;;;;16.97;10.43;;;;;;;-4.95;88.30;102004.56;5037677;28;20252;-70
2021/12/22 03:16:18;;;;;;;16.17;9.97;;;;;;;-4.96;88.30;101989.81;5034985;28;20249;-70
2021/12/22 03:18:45;;;;;;;15.67;8.97;;;;;;;-4.98;88.18;102001.88;5044049;28;20213;-71
2021/12/22 03:21:19;;;;;;;16.83;9.47;;;;;;;-4.99;88.22;101988.84;5032931;28;20233;-71
2021/12/22 03:23:48;;;;;;;16.57;9.60;;;;;;;-5.00;88.26;101995.78;5038865;28;20577;-73
2021/12/22 03:26:17;;;;;;;15.30;8.43;;;;;;;-5.01;88.19;101994.03;5037807;28;20284;-71
2021/12/22 03:28:44;;;;;;;16.07;9.03;;;;;;;-5.02;88.13;101994.91;5045613;28;20206;-71
2021/12/22 03:31:12;;;;;;;17.60;9.63;;;;;;;-5.04;88.04;101991.38;5035812;28;20758;-71
2021/12/22 03:33:39;;;;;;;15.33;9.13;;;;;;;-5.06;87.98;101982.69;5033875;28;20209;-72
2021/12/22 03:36:05;;;;;;;13.87;8.80;;;;;;;-5.12;87.69;101985.13;5038640;28;20280;-71
2021/12/22 03:38:33;;;;;;;16.23;9.37;;;;;;;-5.19;87.71;101978.03;5036640;28;20210;-71
2021/12/22 03:41:01;;;;;;;11.57;8.47;;;;;;;-5.27;87.34;101983.06;5033209;28;20233;-71
2021/12/22 03:43:28;;;;;;;17.80;10.07;;;;;;;-5.30;87.53;101976.94;5036775;28;20210;-71
2021/12/22 03:45:54;;;;;;;14.23;9.13;;;;;;;-5.33;87.59;101980.34;5029905;28;20706;-71
2021/12/22 03:48:22;;;;;;;14.83;10.07;;;;;;;-5.34;87.67;101972.50;5031580;28;20225;-71
2021/12/22 03:50:48;;;;;;;16.63;9.47;;;;;;;-5.34;87.58;101977.69;5029778;28;20297;-71
2021/12/22 03:53:15;;;;;;;17.43;9.50;;;;;;;-5.35;87.50;101973.34;5030503;28;20217;-71
2021/12/22 03:55:41;;;;;;;13.97;8.73;;;;;;;-5.35;87.59;101975.94;5030373;28;20706;-71
2021/12/22 03:58:09;;;;;;;14.57;7.97;;;;;;;-5.36;87.76;101982.84;5034432;28;20209;-71
2021/12/22 04:00:38;;;;;;;16.27;9.03;;;;;;;-5.36;87.54;101979.38;5031140;28;20225;-71
2021/12/22 04:03:05;;;;;;;16.73;9.03;;;;;;;-5.38;87.71;101973.31;5030205;28;20214;-71
2021/12/22 04:05:32;;;;;;;15.03;8.80;;;;;;;-5.40;87.48;101981.06;5048139;28;20221;-71
2021/12/22 04:07:58;;;;;;;16.20;8.67;;;;;;;-5.39;87.58;101976.75;5035206;28;20763;-71
2021/12/22 04:10:25;;;;;;;16.87;9.80;;;;;;;-5.40;87.63;101970.66;5034966;28;20205;-71
2021/12/22 04:12:53;;;;;;;18.37;9.87;;;;;;;-5.41;87.33;101968.91;5036226;28;20244;-72
2021/12/22 04:15:23;;;;;;;13.53;8.47;;;;;;;-5.43;87.59;101964.53;5039334;28;20231;-71
2021/12/22 04:17:50;;;;;;;16.80;8.93;;;;;;;-5.44;87.30;101967.97;5042532;28;20213;-71
2021/12/22 04:20:17;;;;;;;14.53;8.17;;;;;;;-5.47;87.75;101966.16;5046341;28;20492;-71
2021/12/22 04:22:44;;;;;;;13.03;8.03;;;;;;;-5.48;87.44;101967.00;5035845;28;20201;-71
2021/12/22 04:25:19;;;;;;;15.63;8.00;;;;;;;-5.50;87.04;101963.50;5036479;28;20229;-70
2021/12/22 04:27:46;;;;;;;12.43;6.90;;;;;;;-5.50;87.33;101960.91;5041863;28;20694;-72
2021/12/22 04:30:13;;;;;;;13.73;6.13;;;;;;;-5.49;87.45;101960.06;5028761;28;20218;-70
2021/12/22 04:32:41;;;;;;;14.43;6.60;;;;;;;-5.48;88.10;101964.41;5037543;28;20204;-71
2021/12/22 04:35:08;;;;;;;15.57;6.83;;;;;;;-5.45;87.92;101964.50;5033654;28;20232;-72
2021/12/22 04:37:35;;;;;;;15.00;7.70;;;;;;;-5.42;87.80;101961.97;5037285;28;20206;-70
2021/12/22 04:40:01;;;;;;;15.47;6.87;;;;;;;-5.38;87.88;101960.31;5033609;28;20202;-71
2021/12/22 04:42:28;;;;;;;16.43;7.67;;;;;;;-5.34;88.14;101959.53;5044939;28;20230;-70
2021/12/22 04:44:57;;;;;;;14.83;7.30;;;;;;;-5.30;88.20;101954.44;5039226;28;20253;-70
2021/12/22 04:47:23;;;;;;;20.97;8.30;;;;;;;-5.24;88.34;101956.31;5033472;28;20293;-71
2021/12/22 04:49:51;;;;;;;18.53;8.70;;;;;;;-5.18;88.58;101951.22;5039033;28;20206;-71
2021/12/22 04:52:20;;;;;;;13.33;7.77;;;;;;;-5.13;88.49;101953.94;5038267;28;20213;-71
2021/12/22 04:54:52;;;;;;;13.80;8.23;;;;;;;-5.12;88.58;101946.16;5036191;28;20245;-71
2021/12/22 04:57:18;;;;;;;16.33;8.37;;;;;;;-5.11;88.64;101947.91;5038831;28;20293;-70
2021/12/22 04:59:45;;;;;;;14.13;7.63;;;;;;;-5.13;88.62;101952.22;5040194;28;20202;-71
2021/12/22 05:02:11;;;;;;;16.03;8.40;;;;;;;-5.15;88.96;101950.41;5037390;28;20232;-70
2021/12/22 05:04:38;;;;;;;12.43;7.50;;;;;;;-5.20;88.78;101958.13;5036878;28;20238;-71
2021/12/22 05:07:05;;;;;;;17.57;9.37;;;;;;;-5.27;88.57;101959.72;5038667;28;20289;-71
2021/12/22 05:09:32;;;;;;;15.17;7.90;;;;;;;-5.32;88.55;101957.84;5030274;28;20207;-71
2021/12/22 05:11:58;;;;;;;13.77;8.47;;;;;;;-5.35;88.63;101968.16;5039983;28;20202;-70
2021/12/22 05:14:25;;;;;;;15.00;7.83;;;;;;;-5.38;88.49;101965.50;5041181;28;20225;-71
2021/12/22 05:16:58;;;;;;;13.20;7.57;;;;;;;-5.40;88.51;101978.47;5044437;28;20571;-71
2021/12/22 05:19:24;;;;;;;15.00;8.50;;;;;;;-5.42;88.52;101979.25;5047771;28;20270;-71
2021/12/22 05:21:51;;;;;;;13.27;8.23;;;;;;;-5.47;88.44;101973.97;5037752;28;20707;-71
2021/12/22 05:24:19;;;;;;;11.83;7.73;;;;;;;-5.49;88.31;101973.03;5046399;28;20543;-72
2021/12/22 05:26:45;;;;;;;15.17;8.50;;;;;;;-5.49;88.40;101979.94;5047833;28;20225;-71
2021/12/22 05:29:12;;;;;;;14.00;7.80;;;;;;;-5.51;88.30;101971.25;5039414;28;20210;-71
2021/12/22 05:31:39;;;;;;;13.67;8.13;;;;;;;-5.53;88.48;101972.94;5040400;28;20202;-71
2021/12/22 05:34:06;;;;;;;11.77;6.87;;;;;;;-5.56;88.18;101962.50;5044079;28;20221;-71
2021/12/22 05:36:33;;;;;;;13.33;8.00;;;;;;;-5.62;88.35;101968.41;5041554;28;20202;-72
2021/12/22 05:39:00;;;;;;;13.40;8.00;;;;;;;-5.66;88.19;101970.06;5048726;28;20202;-70
2021/12/22 05:41:27;;;;;;;12.00;7.13;;;;;;;-5.69;88.11;101964.78;5040418;28;20225;-70
2021/12/22 05:43:54;;;;;;;14.27;7.67;;;;;;;-5.71;88.17;101969.06;5039583;28;20210;-71
2021/12/22 05:46:20;;;;;;;15.87;9.07;;;;;;;-5.72;88.09;101972.50;5045927;28;20625;-70
2021/12/22 05:48:48;;;;;;;12.47;7.97;;;;;;;-5.74;88.21;101974.19;5044437;28;20205;-71
2021/12/22 05:51:15;;;;;;;15.37;7.83;;;;;;;-5.74;87.95;101966.41;5048401;28;20259;-71
2021/12/22 05:53:41;;;;;;;15.53;8.50;;;;;;;-5.75;87.97;101967.25;5045777;28;20205;-70
2021/12/22 05:56:08;;;;;;;11.47;7.10;;;;;;;-5.77;88.06;101968.06;5046460;28;20225;-71
2021/12/22 05:58:36;;;;;;;14.70;8.53;;;;;;;-5.77;88.06;101971.53;5047538;28;20682;-71
2021/12/22 06:01:02;;;;;;;16.53;8.77;;;;;;;-5.80;88.22;101968.84;5045476;28;20229;-71
2021/12/22 06:03:29;;;;;;;14.23;7.97;;;;;;;-5.82;88.02;101964.47;5044264;28;20202;-70
2021/12/22 06:05:55;;;;;;;15.47;8.37;;;;;;;-5.83;87.86;101967.91;5042845;28;20222;-71
2021/12/22 06:08:22;;;;;;;17.27;8.37;;;;;;;-5.86;87.76;101963.50;5049646;28;20216;-71
2021/12/22 06:10:49;;;;;;;16.43;8.60;;;;;;;-5.87;87.94;101959.16;5049413;28;20670;-70
2021/12/22 06:13:15;;;;;;;13.30;7.27;;;;;;;-5.88;87.84;101961.75;5045841;28;20205;-70
2021/12/22 06:15:43;;;;;;;14.80;8.57;;;;;;;-5.90;87.63;101961.72;5047196;28;20229;-71
2021/12/22 06:18:10;;;;;;;15.90;8.43;;;;;;;-5.91;87.77;101965.13;5042028;28;20201;-71
2021/12/22 06:20:36;;;;;;;14.60;8.30;;;;;;;-5.92;87.82;101960.81;5045805;28;20304;-71
2021/12/22 06:23:03;;;;;;;14.13;8.17;;;;;;;-5.94;87.68;101959.91;5036138;28;20226;-70
2021/12/22 06:25:30;;;;;;;14.67;7.67;;;;;;;-5.95;87.59;101958.16;5047952;28;20225;-71
2021/12/22 06:27:56;;;;;;;15.60;9.30;;;;;;;-5.97;88.00;101962.41;5043587;28;20697;-71
2021/12/22 06:30:24;;;;;;;14.47;8.43;;;;;;;-5.98;87.61;101971.03;5044246;28;20217;-72
2021/12/22 06:32:52;;;;;;;14.97;8.67;;;;;;;-5.99;87.46;101969.28;5040917;28;20221;-72
2021/12/22 06:35:19;;;;;;;13.57;7.63;;;;;;;-6.01;87.98;101963.16;5030493;28;20642;-73
2021/12/22 06:37:47;;;;;;;13.10;7.33;;;;;;;-6.01;87.79;101950.19;5030482;28;20210;-74
2021/12/22 06:40:14;;;;;;;16.40;8.17;;;;;;;-5.98;87.80;101961.53;5042794;28;20214;-73
2021/12/22 06:42:41;;;;;;;15.70;7.77;;;;;;;-5.93;88.25;101964.25;5039018;28;20233;-73
2021/12/22 06:45:09;;;;;;;14.50;7.93;;;;;;;-5.89;87.85;101963.47;5038878;28;20234;-72
2021/12/22 06:47:36;;;;;;;15.70;8.40;;;;;;;-5.86;88.13;101963.50;5038515;28;20589;-73
2021/12/22 06:50:06;;;;;;;14.00;7.47;;;;;;;-5.82;88.49;101965.34;5033963;28;20205;-73
2021/12/22 06:52:32;;;;;;;14.30;7.80;;;;;;;-5.78;88.59;101966.31;5034317;28;20206;-73
2021/12/22 06:54:59;;;;;;;12.63;6.87;;;;;;;-5.74;88.89;101966.41;5036148;28;20244;-72
2021/12/22 06:57:28;;;;;;;17.67;8.17;;;;;;;-5.71;89.00;101963.88;5044596;28;20217;-73
2021/12/22 06:59:56;;;;;;;17.80;8.60;;;;;;;-5.66;88.78;101966.59;5039348;28;20305;-72
2021/12/22 07:02:24;;;;;;;13.77;7.77;;;;;;;-5.60;89.12;101959.84;5036766;28;20616;-73
2021/12/22 07:04:51;;;;;;;12.50;6.70;;;;;;;-5.54;89.19;101950.41;5038731;28;20229;-73
2021/12/22 07:07:19;;;;;;;17.73;7.80;;;;;;;-5.49;88.93;101951.41;5035370;28;20698;-73
2021/12/22 07:09:45;;;;;;;14.90;8.03;;;;;;;-5.49;89.02;101948.81;5032324;28;20386;-73
2021/12/22 07:12:12;;;;;;;17.27;8.47;;;;;;;-5.49;89.16;101949.69;5043742;28;20212;-72
2021/12/22 07:14:39;;;;;;;14.83;8.20;;;;;;;-5.48;89.35;101950.56;5031272;28;20604;-74
2021/12/22 07:17:05;;;;;;;13.87;7.47;;;;;;;-5.50;89.40;101947.91;5044691;28;20217;-74
2021/12/22 07:19:32;;;;;;;16.20;8.27;;;;;;;-5.50;89.17;101947.91;5035043;28;20206;-73
2021/12/22 07:21:58;;;;;;;16.37;7.63;;;;;;;-5.50;89.50;101941.84;5035360;28;20230;-73
2021/12/22 07:24:26;;;;;;;14.27;8.10;;;;;;;-5.48;89.40;101950.56;5030450;28;20222;-74
2021/12/22 07:26:53;;;;;;;15.37;8.57;;;;;;;-5.47;89.44;101954.91;5030397;28;20203;-73
2021/12/22 07:29:19;;;;;;;14.80;8.10;;;;;;;-5.45;89.51;101955.81;5031427;28;20216;-73
2021/12/22 07:31:46;;;;;;;17.23;8.17;;;;;;;-5.42;89.46;101955.91;5045842;28;20574;-74
2021/12/22 07:34:20;;;;;;;16.90;8.67;;;;;;;-5.39;89.68;101961.16;5049185;28;20216;-73
2021/12/22 07:36:51;;;;;;;14.50;7.20;;;;;;;-5.36;89.46;101951.69;5033743;28;20207;-73
2021/12/22 07:39:18;;;;;;;19.77;9.23;;;;;;;-5.34;89.84;101956.94;5036247;28;20907;-73
2021/12/22 07:41:46;;;;;;;19.63;11.60;;;;;;;-5.30;90.08;101958.75;5044781;28;20221;-74
2021/12/22 07:44:12;;;;;;;23.83;11.43;;;;;;;-5.26;89.96;101955.38;5042465;28;20658;-73
2021/12/22 07:46:39;;;;;;;16.23;9.13;;;;;;;-5.24;90.49;101956.31;5040425;28;20679;-73
2021/12/22 07:49:06;;;;;;;17.63;8.73;;;;;;;-5.20;90.38;101952.94;5037201;28;20542;-73
2021/12/22 07:51:32;;;;;;;15.60;8.53;;;;;;;-5.13;90.31;101959.13;5041677;28;20202;-73
2021/12/22 07:54:17;;;;;;;16.83;9.00;;;;;;;-5.11;90.36;101949.66;5035584;28;20216;-73
2021/12/22 07:56:44;;;;;;;13.80;7.40;;;;;;;-5.06;90.54;101950.63;5031518;28;20218;-73
2021/12/22 07:59:11;;;;;;;16.00;9.10;;;;;;;-5.03;90.40;101951.56;5041876;28;20675;-73
2021/12/22 08:01:38;;;;;;;24.20;10.77;;;;;;;-4.99;90.58;101947.28;5039518;28;20237;-73
2021/12/22 08:04:05;;;;;;;18.97;10.53;;;;;;;-4.98;90.73;101947.31;5039917;28;20663;-73
2021/12/22 08:06:31;;;;;;;22.87;11.00;;;;;;;-4.96;90.84;101947.34;5036624;28;20685;-74
2021/12/22 08:08:58;;;;;;;26.93;11.50;;;;;;;-4.94;90.86;101940.47;5037447;28;20217;-73
2021/12/22 08:11:24;;;;;;;26.40;12.27;;;;;;;-4.93;90.73;101943.09;5044026;28;20213;-73
2021/12/22 08:13:52;;;;;;;20.57;10.63;;;;;;;-4.89;91.04;101944.06;5043512;28;20654;-73
2021/12/22 08:16:20;;;;;;;18.13;9.10;;;;;;;-4.85;90.83;101937.19;5043484;28;20779;-73
2021/12/22 08:18:47;;;;;;;23.00;9.50;;;;;;;-4.83;91.19;101944.16;5044090;28;20662;-73
2021/12/22 08:21:13;;;;;;;17.20;8.70;;;;;;;-4.79;91.18;101945.09;5041674;28;20221;-73
2021/12/22 08:23:41;;;;;;;18.20;8.23;;;;;;;-4.77;91.62;101931.28;5043053;28;20226;-74
2021/12/22 08:26:08;;;;;;;16.83;8.37;;;;;;;-4.73;91.38;101935.72;5043573;28;20225;-73
2021/12/22 08:28:35;;;;;;;15.80;8.40;;;;;;;-4.70;91.29;101933.19;5045860;28;20205;-73
2021/12/22 08:31:02;;;;;;;18.40;9.17;;;;;;;-4.65;91.45;101933.25;5044859;28;20202;-73
2021/12/22 08:33:32;;;;;;;18.63;9.33;;;;;;;-4.62;91.67;101934.19;5045174;28;20198;-73
2021/12/22 08:38:54;;;;;;;18.77;8.73;;;;;;;-4.52;91.79;101935.25;5046266;28;20213;-73
2021/12/22 08:41:24;;;;;;;19.33;9.17;;;;;;;-4.46;91.99;101940.53;5044664;28;20248;-73
2021/12/22 08:43:53;;;;;;;22.30;9.20;;;;;;;-4.41;92.07;101938.91;5037149;28;20228;-73
2021/12/22 08:46:20;;;;;;;17.17;8.77;;;;;;;-4.35;91.98;101932.94;5076274;22;20236;-83
2021/12/22 08:48:48;;;;;;;21.27;10.50;;;;;;;-4.30;92.14;101939.97;5068222;28;21414;-83
2021/12/22 08:51:15;;;;;;;17.70;9.00;;;;;;;-4.25;92.18;101930.53;5058583;28;20202;-83
2021/12/22 08:53:43;;;;;;;19.30;9.73;;;;;;;-4.18;92.33;101935.84;5055178;28;20198;-83
2021/12/22 08:56:09;;;;;;;19.27;9.47;;;;;;;-4.12;92.58;101933.34;5057659;28;20549;-83
2021/12/22 08:58:36;;;;;;;15.80;9.27;;;;;;;-4.08;92.53;101938.63;5050481;28;20630;-83
2021/12/22 09:01:04;;;;;;;23.10;10.60;;;;;;;-4.01;92.68;101934.41;5064917;28;20576;-83
2021/12/22 09:03:32;;;;;;;19.37;9.83;;;;;;;-3.97;92.74;101937.09;5064708;28;20319;-83
2021/12/22 09:06:00;;;;;;;21.40;10.13;;;;;;;-3.91;93.03;101938.88;5059288;28;20687;-83
2021/12/22 09:08:27;;;;;;;23.00;11.23;;;;;;;-3.86;92.71;101938.13;5068041;28;20225;-83
2021/12/22 09:10:54;;;;;;;25.00;12.77;;;;;;;-3.80;93.12;101944.28;5059024;28;20764;-86
2021/12/22 09:13:20;;;;;;;20.73;10.43;;;;;;;-3.75;92.92;101937.41;5057438;28;20825;-87
2021/12/22 09:15:47;;;;;;;21.70;11.33;;;;;;;-3.69;93.07;101929.69;5057064;28;20212;-85
2021/12/22 09:18:14;;;;;;;21.97;11.50;;;;;;;-3.66;93.06;101933.22;5054725;28;20237;-85
2021/12/22 09:20:41;;;;;;;20.20;12.10;;;;;;;-3.62;93.02;101942.84;5053239;28;20212;-84
2021/12/22 09:23:09;;;;;;;23.57;11.80;;;;;;;-3.61;92.97;101931.59;5052701;28;20236;-85
2021/12/22 09:25:35;;;;;;;21.50;11.07;;;;;;;-3.57;93.23;101946.38;5059725;28;20294;-83
2021/12/22 09:28:03;;;;;;;19.13;11.10;;;;;;;-3.55;93.03;101944.66;5057222;28;20313;-85
2021/12/22 09:30:35;;;;;;;18.40;11.57;;;;;;;-3.53;93.20;101935.16;5056958;28;20655;-85
2021/12/22 09:33:03;;;;;;;23.07;11.87;;;;;;;-3.48;93.31;101935.22;5056628;28;20224;-84
2021/12/22 09:35:29;;;;;;;20.07;12.50;;;;;;;-3.46;93.10;101932.66;5055747;28;20217;-85
2021/12/22 09:37:56;;;;;;;19.87;11.40;;;;;;;-3.40;93.25;101930.16;5055183;28;20221;-86
2021/12/22 09:40:24;;;;;;;25.73;11.37;;;;;;;-3.36;93.00;101937.13;5051823;28;20212;-84
2021/12/22 09:42:51;;;;;;;21.03;11.93;;;;;;;-3.30;93.43;101929.41;5059495;28;20308;-84
2021/12/22 09:45:19;;;;;;;21.27;11.47;;;;;;;-3.25;92.96;101930.34;5052802;28;20220;-88
2021/12/22 09:48:01;;;;;;;18.90;11.37;;;;;;;-3.21;93.00;101927.78;5049329;28;20625;-84
2021/12/22 09:50:46;;;;;;;17.50;10.50;;;;;;;-3.16;93.23;101928.72;5054491;28;20201;-85
2021/12/22 09:53:14;;;;;;;20.33;11.50;;;;;;;-3.12;93.27;101931.38;5060313;28;20672;-85
2021/12/22 09:55:42;;;;;;;18.87;10.87;;;;;;;-3.09;92.95;101928.81;5048627;28;20212;-85
2021/12/22 09:58:10;;;;;;;22.83;11.73;;;;;;;-3.05;92.52;101928.88;5050054;28;20226;-85
2021/12/22 10:00:37;;;;;;;24.10;11.77;;;;;;;-3.01;92.96;101928.03;5049228;28;20209;-84
2021/12/22 10:03:04;;;;;;;24.40;12.40;;;;;;;-2.97;92.92;101934.16;5055960;28;20257;-84
2021/12/22 10:05:31;;;;;;;18.00;11.47;;;;;;;-2.94;93.05;101922.06;5059229;28;20210;-84
2021/12/22 10:08:16;;;;;;;22.47;12.03;;;;;;;-2.88;93.02;101913.44;5054229;28;20217;-84
2021/12/22 10:10:46;;;;;;;17.40;10.20;;;;;;;-2.82;92.50;101922.19;5058941;28;20212;-84
2021/12/22 10:13:16;;;;;;;20.80;10.97;;;;;;;-2.76;92.76;101915.31;5058449;28;20213;-85
2021/12/22 10:15:43;;;;;;;19.43;11.30;;;;;;;-2.71;92.54;101918.84;5047037;28;20217;-84
2021/12/22 10:18:12;;;;;;;18.17;10.43;;;;;;;-2.67;92.56;101918.88;5038863;28;20234;-85
2021/12/22 10:20:40;;;;;;;17.33;9.17;;;;;;;-2.61;93.16;101918.94;5040315;28;20308;-85
2021/12/22 10:23:23;;;;;;;15.87;8.20;;;;;;;-2.54;92.77;101915.56;5058423;28;20201;-85
2021/12/22 10:25:56;;;;;;;20.53;9.17;;;;;;;-2.47;92.86;101921.69;5056705;28;20652;-86
2021/12/22 10:28:24;;;;;;;17.03;9.43;;;;;;;-2.42;92.60;101912.19;5038475;28;20228;-86
2021/12/22 10:30:55;;;;;;;15.00;8.67;;;;;;;-2.37;92.40;101910.50;5049989;28;20219;-86
2021/12/22 10:33:23;;;;;;;21.13;9.77;;;;;;;-2.32;92.42;101913.13;5054357;28;20233;-85
2021/12/22 10:35:51;;;;;;;18.93;9.27;;;;;;;-2.27;92.47;101906.25;5041107;28;20202;-85
2021/12/22 10:38:21;;;;;;;18.73;9.37;;;;;;;-2.23;92.69;101903.69;5043008;28;20236;-85
2021/12/22 10:40:50;;;;;;;19.67;10.43;;;;;;;-2.18;92.81;101902.00;5045100;28;20220;-86
2021/12/22 10:43:23;;;;;;;18.17;9.67;;;;;;;-2.15;92.58;101896.78;5056289;28;20209;-85
2021/12/22 10:45:59;;;;;;;19.80;9.73;;;;;;;-2.10;92.91;101900.31;5046615;28;20252;-86
2021/12/22 10:51:19;;;;;;;18.47;9.43;;;;;;;-2.02;92.74;101902.13;5053146;28;20212;-85
2021/12/22 10:53:50;;;;;;;18.97;9.63;;;;;;;-1.98;92.75;101901.28;5048105;28;20209;-84
2021/12/22 10:56:27;;;;;;;19.80;10.00;;;;;;;-1.96;92.82;101900.41;5050306;28;20197;-85
2021/12/22 10:59:04;;;;;;;17.07;8.83;;;;;;;-1.91;92.84;101909.16;5051971;28;20213;-85
2021/12/22 11:01:30;;;;;;;19.40;9.70;;;;;;;-1.88;92.54;101897.88;5053315;28;20210;-85
2021/12/22 11:04:04;;;;;;;22.83;10.17;;;;;;;-1.85;92.83;101892.69;5049376;28;20208;-85
2021/12/22 11:06:33;;;;;;;19.90;10.43;;;;;;;-1.80;92.78;101893.59;5052070;28;20562;-85
2021/12/22 11:09:03;;;;;;;17.27;8.80;;;;;;;-1.77;92.55;101893.59;5047979;28;20225;-85
2021/12/22 11:11:32;;;;;;;19.33;9.53;;;;;;;-1.75;92.72;101887.50;5057213;28;20193;-86
2021/12/22 11:14:05;;;;;;;16.77;9.80;;;;;;;-1.71;92.83;101877.09;5054056;28;20665;-86
2021/12/22 11:16:32;;;;;;;16.73;9.23;;;;;;;-1.69;92.44;101876.25;5053513;28;20197;-86
2021/12/22 11:19:09;;;;;;;17.67;8.33;;;;;;;-1.66;92.66;101868.44;5056562;28;20221;-85
2021/12/22 11:21:37;;;;;;;20.20;10.07;;;;;;;-1.64;92.91;101871.94;5053955;28;20211;-85
2021/12/22 11:24:04;;;;;;;24.07;10.20;;;;;;;-1.61;92.87;101873.69;5052004;28;20697;-86
2021/12/22 11:26:33;;;;;;;22.37;10.30;;;;;;;-1.58;92.51;101877.16;5053767;28;20219;-86
2021/12/22 11:29:01;;;;;;;19.17;9.43;;;;;;;-1.54;92.78;101878.94;5048378;28;20226;-86
2021/12/22 11:31:29;;;;;;;18.40;9.77;;;;;;;-1.52;92.49;101874.59;5052856;28;20297;-85